Time;durP1;ratioP1;P1;durP2;ratioP2;P2;SDS_P1;SDS_P2;PMS_P1;PMS_P2;Temp;Humidity;BMP_temperature;BMP_pressure;BME280_temperature;BME280_humidity;BME280_pressure;Samples;Min_cycle;Max_cycle;Signal;HPM_P1;HPM_P2
2021/12/17 00:06:53;;;;;;;108.40;25.98;;;8.30;99.90;;;;;;4941733;28;20055;-66
2021/12/17 00:09:18;;;;;;;102.80;41.63;;;8.30;99.90;;;;;;4968706;28;20034;-66
2021/12/17 00:11:44;;;;;;;91.22;35.70;;;8.30;99.90;;;;;;4959567;28;20050;-66
2021/12/17 00:14:13;;;;;;;84.68;24.10;;;8.30;99.90;;;;;;4965221;28;20047;-66
2021/12/17 00:16:41;;;;;;;74.80;22.77;;;8.30;99.90;;;;;;4940484;28;20393;-66
2021/12/17 00:19:38;;;;;;;80.28;23.48;;;8.30;99.90;;;;;;4950090;28;20146;-66
2021/12/17 00:49:19;;;;;;;65.18;19.95;;;8.30;99.90;;;;;;4961319;28;20381;-66
2021/12/17 00:54:33;;;;;;;65.78;21.13;;;8.40;99.90;;;;;;4956725;28;20084;-66
2021/12/17 00:57:27;;;;;;;72.57;21.98;;;8.30;99.90;;;;;;4945535;28;20032;-66
2021/12/17 00:59:54;;;;;;;74.35;21.27;;;8.30;99.90;;;;;;4965286;28;20506;-66
2021/12/17 01:02:27;;;;;;;67.00;20.45;;;8.40;99.90;;;;;;4942159;28;20042;-66
2021/12/17 01:04:56;;;;;;;75.70;21.80;;;8.30;99.90;;;;;;4963793;28;20114;-66
2021/12/17 01:07:24;;;;;;;63.30;20.17;;;8.30;99.90;;;;;;4967265;28;20438;-66
2021/12/17 01:09:50;;;;;;;72.60;22.25;;;8.30;99.90;;;;;;4958207;28;20041;-66
2021/12/17 01:12:16;;;;;;;92.43;23.25;;;8.30;99.90;;;;;;4943381;28;20039;-66
2021/12/17 01:14:43;;;;;;;81.35;22.15;;;8.30;99.90;;;;;;4945640;28;20042;-66
2021/12/17 01:17:10;;;;;;;93.00;23.60;;;8.30;99.90;;;;;;4944579;28;20051;-66
2021/12/17 01:24:59;;;;;;;104.30;25.92;;;8.30;99.90;;;;;;4957054;28;20572;-66
2021/12/17 01:35:41;;;;;;;108.63;26.48;;;8.30;99.90;;;;;;4969794;28;20058;-66
2021/12/17 01:43:27;;;;;;;101.65;25.70;;;8.30;99.90;;;;;;4965414;28;20491;-66
2021/12/17 01:45:53;;;;;;;119.63;25.08;;;8.20;99.90;;;;;;4952466;28;20507;-66
2021/12/17 01:48:25;;;;;;;87.60;24.75;;;8.30;99.90;;;;;;4958482;28;20047;-66
2021/12/17 02:01:35;;;;;;;86.72;22.88;;;8.20;99.90;;;;;;4960670;28;20568;-66
2021/12/17 02:04:04;;;;;;;78.78;20.58;;;8.20;99.90;;;;;;4944438;28;20053;-66
2021/12/17 02:06:33;;;;;;;107.00;22.40;;;8.20;99.90;;;;;;4940618;28;20070;-66
2021/12/17 02:09:00;;;;;;;90.93;22.10;;;8.20;99.90;;;;;;4966902;28;20038;-66
2021/12/17 02:19:45;;;;;;;70.78;19.27;;;8.20;99.90;;;;;;4967362;28;20049;-66
2021/12/17 02:30:31;;;;;;;51.70;16.27;;;8.20;99.90;;;;;;4951980;28;20089;-66
2021/12/17 02:32:57;;;;;;;91.45;19.15;;;8.20;99.90;;;;;;4959745;28;20055;-66
2021/12/17 02:35:31;;;;;;;56.30;17.45;;;8.20;99.90;;;;;;4964914;28;20027;-66
2021/12/17 02:37:58;;;;;;;61.33;18.08;;;8.20;99.90;;;;;;4956123;28;20093;-66
2021/12/17 02:45:46;;;;;;;50.38;15.57;;;8.20;99.90;;;;;;4967054;28;20046;-66
2021/12/17 02:48:15;;;;;;;52.17;14.73;;;8.30;99.90;;;;;;4957541;28;20050;-66
2021/12/17 02:50:44;;;;;;;59.22;16.33;;;8.20;99.90;;;;;;4964745;28;20148;-66
2021/12/17 02:53:11;;;;;;;57.83;16.38;;;8.20;99.90;;;;;;4953616;28;20078;-66
2021/12/17 02:55:39;;;;;;;47.03;15.30;;;8.30;99.90;;;;;;4962498;28;20055;-66
2021/12/17 02:58:06;;;;;;;54.40;16.35;;;8.30;99.90;;;;;;4956143;28;20555;-66
2021/12/17 03:00:34;;;;;;;61.50;16.30;;;8.20;99.90;;;;;;4962454;28;20035;-66
2021/12/17 03:03:03;;;;;;;53.15;16.17;;;8.20;99.90;;;;;;4953545;28;20474;-66
2021/12/17 03:05:29;;;;;;;49.47;16.25;;;8.20;99.90;;;;;;4958881;28;20450;-66
2021/12/17 03:07:56;;;;;;;52.50;15.60;;;8.30;99.90;;;;;;4953575;28;20031;-66
2021/12/17 03:10:23;;;;;;;49.85;15.32;;;8.30;99.90;;;;;;4944791;28;20054;-66
2021/12/17 03:13:01;;;;;;;53.72;16.65;;;8.30;99.90;;;;;;4957560;28;20051;-66
2021/12/17 03:15:54;;;;;;;67.65;16.98;;;8.20;99.90;;;;;;4947559;28;20049;-66
2021/12/17 03:23:42;;;;;;;62.08;16.27;;;8.30;99.90;;;;;;4954243;28;20570;-66
2021/12/17 03:26:11;;;;;;;52.20;15.60;;;8.30;99.90;;;;;;4960782;28;20130;-66
2021/12/17 03:28:40;;;;;;;50.58;17.05;;;8.30;99.90;;;;;;4957563;28;20039;-66
2021/12/17 03:31:07;;;;;;;52.15;15.95;;;8.30;99.90;;;;;;4963900;28;20045;-66
2021/12/17 03:33:35;;;;;;;65.40;16.73;;;8.30;99.90;;;;;;4956938;28;20057;-66
2021/12/17 03:36:01;;;;;;;100.40;19.77;;;8.30;99.90;;;;;;4940990;28;20551;-66
2021/12/17 03:38:28;;;;;;;56.90;16.60;;;8.30;99.90;;;;;;4956413;28;20042;-66
2021/12/17 03:41:08;;;;;;;93.20;18.60;;;8.30;99.90;;;;;;4959731;28;20114;-66
2021/12/17 03:43:34;;;;;;;47.63;15.15;;;8.30;99.90;;;;;;4961735;28;20047;-67
2021/12/17 03:46:00;;;;;;;47.55;16.33;;;8.30;99.90;;;;;;4961462;28;20525;-66
2021/12/17 03:48:28;;;;;;;54.92;16.60;;;8.30;99.90;;;;;;4943617;28;20107;-66
2021/12/17 03:50:54;;;;;;;51.88;15.38;;;8.30;99.90;;;;;;4954888;28;20047;-66
2021/12/17 03:53:20;;;;;;;90.20;19.63;;;8.20;99.90;;;;;;4959128;28;20181;-66
2021/12/17 03:55:46;;;;;;;104.90;20.08;;;8.20;99.90;;;;;;4954011;28;20368;-66
2021/12/17 03:58:11;;;;;;;58.15;17.38;;;8.20;99.90;;;;;;4966644;28;20033;-66
2021/12/17 04:00:37;;;;;;;57.00;14.65;;;8.30;99.90;;;;;;4938655;28;20062;-66
2021/12/17 04:03:03;;;;;;;69.03;17.60;;;8.30;99.90;;;;;;4945224;28;20058;-66
2021/12/17 04:05:29;;;;;;;62.08;16.85;;;8.20;99.90;;;;;;4962248;28;20035;-66
2021/12/17 04:07:55;;;;;;;59.80;16.52;;;8.30;99.90;;;;;;4963820;28;20519;-66
2021/12/17 04:10:22;;;;;;;66.10;16.90;;;8.20;99.90;;;;;;4959098;28;20090;-66
2021/12/17 04:13:02;;;;;;;75.82;18.20;;;8.20;99.90;;;;;;4959516;28;20039;-66
2021/12/17 04:15:35;;;;;;;66.93;17.02;;;8.30;99.90;;;;;;4943493;28;20045;-66
2021/12/17 04:18:05;;;;;;;61.78;16.75;;;8.30;99.90;;;;;;4963229;28;20088;-66
2021/12/17 04:20:31;;;;;;;56.33;15.77;;;8.20;99.90;;;;;;4961232;28;20522;-66
2021/12/17 04:22:57;;;;;;;61.42;16.58;;;8.20;99.90;;;;;;4958874;28;20048;-66
2021/12/17 04:25:23;;;;;;;55.20;15.43;;;8.30;99.90;;;;;;4964087;28;20043;-66
2021/12/17 04:27:49;;;;;;;68.95;16.55;;;8.30;99.90;;;;;;4946550;28;20094;-66
2021/12/17 04:30:14;;;;;;;58.60;16.33;;;8.20;99.90;;;;;;4963047;28;20503;-66
2021/12/17 04:32:40;;;;;;;56.28;15.90;;;8.20;99.90;;;;;;4960658;28;20039;-66
2021/12/17 04:35:07;;;;;;;60.17;16.38;;;8.20;99.90;;;;;;4963973;28;20098;-66
2021/12/17 04:37:33;;;;;;;66.40;16.92;;;8.20;99.90;;;;;;4957612;28;20105;-66
2021/12/17 04:40:00;;;;;;;57.10;15.25;;;8.20;99.90;;;;;;4962238;28;20039;-66
2021/12/17 04:42:36;;;;;;;53.80;15.23;;;8.20;99.90;;;;;;4938475;28;20051;-66
2021/12/17 04:45:03;;;;;;;54.50;15.63;;;8.20;99.90;;;;;;4950657;28;20086;-66
2021/12/17 04:58:26;;;;;;;50.17;14.63;;;8.20;99.90;;;;;;4959084;28;20045;-66
2021/12/17 05:00:52;;;;;;;98.18;18.05;;;8.20;99.90;;;;;;4940958;28;20046;-66
2021/12/17 05:03:18;;;;;;;97.60;16.92;;;8.20;99.90;;;;;;4934496;28;20051;-66
2021/12/17 05:05:44;;;;;;;51.72;15.35;;;8.20;99.90;;;;;;4962105;28;20035;-66
2021/12/17 05:08:15;;;;;;;58.78;15.45;;;8.20;99.90;;;;;;4956288;28;20062;-66
2021/12/17 05:11:04;;;;;;;80.07;17.88;;;8.20;99.90;;;;;;4967044;28;20562;-66
2021/12/17 05:19:07;;;;;;;65.50;17.10;;;8.20;99.90;;;;;;4956847;28;20408;-66
2021/12/17 05:21:33;;;;;;;105.57;17.98;;;8.20;99.90;;;;;;4963251;28;20125;-66
2021/12/17 05:23:59;;;;;;;56.13;16.48;;;8.20;99.90;;;;;;4960151;28;20495;-66
2021/12/17 05:26:24;;;;;;;61.85;16.42;;;8.20;99.90;;;;;;4966224;28;20039;-66
2021/12/17 05:28:51;;;;;;;102.90;29.15;;;8.20;99.90;;;;;;4953238;28;20097;-66
2021/12/17 05:31:21;;;;;;;59.08;16.55;;;8.20;99.90;;;;;;4961979;28;20126;-66
2021/12/17 05:33:48;;;;;;;82.53;41.42;;;8.30;99.90;;;;;;4952132;28;20082;-66
2021/12/17 05:36:14;;;;;;;85.10;21.55;;;8.30;99.90;;;;;;4961593;28;20035;-66
2021/12/17 05:38:40;;;;;;;66.53;18.15;;;8.20;99.90;;;;;;4951567;28;20046;-66
2021/12/17 05:41:05;;;;;;;67.30;16.50;;;8.20;99.90;;;;;;4963798;28;20076;-66
2021/12/17 05:43:36;;;;;;;93.30;19.30;;;8.20;99.90;;;;;;4955357;28;20043;-66
2021/12/17 05:46:09;;;;;;;56.95;16.88;;;8.20;99.90;;;;;;4964967;28;20051;-66
2021/12/17 05:48:35;;;;;;;65.38;25.10;;;8.20;99.90;;;;;;4955906;28;20048;-66
2021/12/17 05:51:04;;;;;;;137.90;66.78;;;8.20;99.90;;;;;;4964240;28;20040;-66
2021/12/17 05:53:30;;;;;;;84.68;36.85;;;8.20;99.90;;;;;;4963340;28;20522;-66
2021/12/17 05:55:56;;;;;;;70.70;28.52;;;8.20;99.90;;;;;;4955706;28;20043;-66
2021/12/17 05:58:23;;;;;;;73.97;24.13;;;8.20;99.90;;;;;;4967033;28;20039;-66
2021/12/17 06:00:49;;;;;;;59.05;16.33;;;8.20;99.90;;;;;;4959685;28;20134;-66
2021/12/17 06:03:15;;;;;;;69.85;17.23;;;8.20;99.90;;;;;;4959475;28;20127;-66
2021/12/17 06:05:41;;;;;;;62.75;16.63;;;8.20;99.90;;;;;;4941124;28;20044;-66
2021/12/17 06:08:07;;;;;;;62.17;15.60;;;8.20;99.90;;;;;;4968157;28;20047;-66
2021/12/17 06:10:32;;;;;;;63.58;17.77;;;8.20;99.90;;;;;;4961990;28;20042;-66
2021/12/17 06:12:58;;;;;;;53.83;16.52;;;8.20;99.90;;;;;;4940566;28;20059;-66
2021/12/17 06:15:25;;;;;;;86.70;18.23;;;8.10;99.90;;;;;;4953271;28;20042;-66
2021/12/17 06:17:52;;;;;;;61.55;16.13;;;8.20;99.90;;;;;;4965694;28;20039;-66
2021/12/17 06:20:19;;;;;;;78.07;17.85;;;8.20;99.90;;;;;;4960307;28;20039;-66
2021/12/17 06:22:46;;;;;;;60.17;16.48;;;8.10;99.90;;;;;;4962089;28;20100;-66
2021/12/17 06:25:12;;;;;;;77.15;17.98;;;8.20;99.90;;;;;;4957164;28;20083;-66
2021/12/17 06:27:39;;;;;;;75.80;18.20;;;8.20;99.90;;;;;;4968159;28;20081;-66
2021/12/17 06:30:07;;;;;;;84.80;17.95;;;8.10;99.90;;;;;;4954921;28;20097;-66
2021/12/17 06:32:32;;;;;;;85.28;19.20;;;8.10;99.90;;;;;;4960426;28;20046;-66
2021/12/17 06:34:58;;;;;;;70.47;17.25;;;8.10;99.90;;;;;;4965323;28;20122;-66
2021/12/17 06:37:24;;;;;;;113.28;19.17;;;8.10;99.90;;;;;;4958468;28;20061;-66
2021/12/17 06:39:50;;;;;;;73.40;17.15;;;8.10;99.90;;;;;;4940999;28;20054;-66
2021/12/17 06:42:16;;;;;;;79.72;18.90;;;8.10;99.90;;;;;;4941380;28;20070;-66
2021/12/17 06:44:45;;;;;;;80.78;19.25;;;8.00;99.90;;;;;;4962300;28;20086;-66
2021/12/17 06:47:24;;;;;;;74.50;17.10;;;8.10;99.90;;;;;;4955488;28;20491;-66
2021/12/17 06:54:37;;;;;;;70.97;17.33;;;8.00;99.90;;;;;;4963255;28;20106;-66
2021/12/17 07:00:42;;;;;;;62.53;16.77;;;8.00;99.90;;;;;;4963130;28;20073;-66
2021/12/17 07:11:01;;;;;;;62.88;16.73;;;8.00;99.90;;;;;;4963859;28;20047;-66
2021/12/17 07:31:23;;;;;;;50.92;15.65;;;7.90;99.90;;;;;;4961639;28;20097;-66
2021/12/17 07:32:42;;;;;;;48.63;14.73;;;7.90;99.90;;;;;;4951239;28;20491;-66
2021/12/17 07:40:07;;;;;;;80.78;17.20;;;8.00;99.90;;;;;;4962353;28;20118;-66
2021/12/17 07:42:32;;;;;;;50.33;15.13;;;7.90;99.90;;;;;;4959325;28;20138;-66
2021/12/17 07:44:58;;;;;;;53.83;15.40;;;7.90;99.90;;;;;;4957981;28;20042;-66
2021/12/17 07:47:25;;;;;;;55.13;15.18;;;8.00;99.90;;;;;;4960496;28;20400;-66
2021/12/17 07:49:51;;;;;;;50.20;15.90;;;7.90;99.90;;;;;;4936223;28;20125;-66
2021/12/17 07:52:17;;;;;;;77.65;16.38;;;8.00;99.90;;;;;;4961906;28;20491;-66
2021/12/17 07:54:43;;;;;;;48.05;15.18;;;8.00;99.90;;;;;;4959454;28;20092;-66
2021/12/17 07:57:09;;;;;;;57.72;16.13;;;8.00;99.90;;;;;;4968636;28;20121;-66
2021/12/17 07:59:35;;;;;;;48.88;15.77;;;8.00;99.90;;;;;;4959488;28;20042;-66
2021/12/17 08:02:03;;;;;;;48.47;15.27;;;8.00;99.90;;;;;;4961826;28;20414;-66
2021/12/17 08:04:29;;;;;;;45.53;14.93;;;8.00;99.90;;;;;;4961162;28;20442;-66
2021/12/17 08:06:55;;;;;;;51.47;14.70;;;8.00;99.90;;;;;;4964479;28;20125;-66
2021/12/17 08:09:21;;;;;;;66.07;16.88;;;8.00;99.90;;;;;;4958998;28;20403;-66
2021/12/17 08:11:54;;;;;;;44.75;14.10;;;8.00;99.90;;;;;;4963973;28;20086;-66
2021/12/17 08:14:20;;;;;;;46.72;14.05;;;8.00;99.90;;;;;;4956185;28;20530;-66
2021/12/17 08:25:16;;;;;;;60.65;17.20;;;8.10;99.90;;;;;;4958101;28;20058;-66
2021/12/17 08:32:44;;;;;;;67.88;18.00;;;8.00;99.90;;;;;;4963359;28;20126;-66
2021/12/17 08:35:10;;;;;;;66.65;17.50;;;8.10;99.90;;;;;;4954936;28;20047;-66
2021/12/17 08:37:36;;;;;;;73.00;18.02;;;8.10;99.90;;;;;;4965010;28;20039;-66
2021/12/17 08:40:04;;;;;;;71.55;18.33;;;8.10;99.90;;;;;;4961191;28;20098;-66
2021/12/17 08:42:29;;;;;;;64.53;16.83;;;8.10;99.90;;;;;;4961961;28;20483;-66
2021/12/17 08:44:55;;;;;;;76.35;18.35;;;8.10;99.90;;;;;;4961600;28;20046;-66
2021/12/17 08:47:22;;;;;;;63.97;17.98;;;8.10;99.90;;;;;;4959536;28;20043;-66
2021/12/17 08:49:49;;;;;;;64.10;17.95;;;8.10;99.90;;;;;;4964158;28;20039;-66
2021/12/17 08:52:15;;;;;;;52.20;15.85;;;8.10;99.90;;;;;;4960794;28;20129;-66
2021/12/17 08:54:42;;;;;;;55.50;16.73;;;8.10;99.90;;;;;;4968960;28;20446;-66
2021/12/17 08:57:08;;;;;;;60.65;17.05;;;8.20;99.90;;;;;;4945397;28;20055;-66
2021/12/17 08:59:34;;;;;;;61.03;18.15;;;8.20;99.90;;;;;;4948139;28;20059;-66
2021/12/17 09:02:00;;;;;;;57.80;17.52;;;8.20;99.90;;;;;;4958847;28;20046;-66
2021/12/17 09:04:27;;;;;;;58.67;18.50;;;8.20;99.90;;;;;;4964701;28;20594;-66
2021/12/17 09:06:54;;;;;;;56.80;16.52;;;8.20;99.90;;;;;;4958748;28;20054;-66
2021/12/17 09:09:22;;;;;;;58.70;18.00;;;8.20;99.90;;;;;;4963296;28;20039;-66
2021/12/17 09:11:48;;;;;;;51.65;17.35;;;8.30;99.90;;;;;;4949041;28;20089;-65
2021/12/17 09:14:16;;;;;;;52.72;16.50;;;8.30;99.90;;;;;;4969575;28;20113;-65
2021/12/17 09:16:42;;;;;;;55.42;16.95;;;8.30;99.90;;;;;;4941800;28;20110;-65
2021/12/17 09:19:10;;;;;;;51.35;17.90;;;8.30;99.90;;;;;;4967525;28;20039;-65
2021/12/17 09:21:35;;;;;;;65.22;17.30;;;8.40;99.90;;;;;;4966763;28;20050;-66
2021/12/17 09:24:01;;;;;;;49.05;15.80;;;8.40;99.90;;;;;;4961907;28;20407;-66
2021/12/17 09:26:27;;;;;;;43.92;14.93;;;8.40;99.90;;;;;;4967587;28;20166;-66
2021/12/17 09:28:53;;;;;;;48.90;16.33;;;8.50;99.90;;;;;;4957713;28;20082;-66
2021/12/17 09:31:19;;;;;;;46.15;16.40;;;8.40;99.90;;;;;;4965910;28;20043;-66
2021/12/17 09:33:49;;;;;;;45.88;14.85;;;8.40;99.90;;;;;;4958838;28;20047;-66
2021/12/17 09:36:14;;;;;;;43.42;15.80;;;8.50;99.90;;;;;;4943051;28;20047;-66
2021/12/17 09:38:40;;;;;;;35.90;14.65;;;8.50;99.90;;;;;;4958762;28;20034;-66
2021/12/17 09:41:06;;;;;;;35.90;14.30;;;8.50;99.90;;;;;;4967614;28;20189;-66
2021/12/17 09:43:35;;;;;;;43.10;14.77;;;8.50;99.90;;;;;;4962916;28;20054;-66
2021/12/17 09:46:04;;;;;;;33.15;14.35;;;8.50;99.90;;;;;;4962794;28;20492;-66
2021/12/17 09:48:30;;;;;;;46.88;15.70;;;8.50;99.90;;;;;;4961169;28;20146;-66
2021/12/17 09:50:56;;;;;;;41.20;16.05;;;8.60;99.90;;;;;;4961035;28;20071;-66
2021/12/17 09:53:22;;;;;;;30.60;13.00;;;8.60;99.90;;;;;;4956614;28;20446;-66
2021/12/17 09:55:49;;;;;;;33.90;13.25;;;8.60;99.90;;;;;;4961337;28;20125;-66
2021/12/17 09:58:16;;;;;;;27.30;12.95;;;8.60;99.90;;;;;;4962179;28;20082;-66
2021/12/17 10:00:42;;;;;;;30.38;12.82;;;8.70;99.90;;;;;;4966017;28;20391;-66
2021/12/17 10:03:08;;;;;;;25.77;13.20;;;8.70;99.90;;;;;;4963349;28;20038;-66
2021/12/17 10:05:36;;;;;;;28.73;13.50;;;8.70;99.90;;;;;;4961728;28;20448;-66
2021/12/17 10:08:14;;;;;;;29.10;13.00;;;8.70;99.90;;;;;;4966035;28;20081;-66
2021/12/17 10:11:01;;;;;;;28.65;13.23;;;8.80;99.90;;;;;;4959501;28;20184;-66
2021/12/17 10:13:30;;;;;;;25.83;12.38;;;8.80;99.90;;;;;;4942343;28;20054;-66
2021/12/17 10:16:02;;;;;;;19.17;11.68;;;8.80;99.90;;;;;;4959424;28;20101;-66
2021/12/17 10:18:48;;;;;;;20.25;11.40;;;8.80;99.90;;;;;;4961107;28;20039;-66
2021/12/17 10:21:25;;;;;;;20.05;11.07;;;8.90;99.90;;;;;;4965438;28;20062;-66
2021/12/17 10:23:52;;;;;;;21.98;11.90;;;8.90;99.90;;;;;;4959244;28;20129;-66
2021/12/17 10:26:20;;;;;;;20.08;11.27;;;8.90;99.90;;;;;;4952715;28;20058;-66
2021/12/17 10:29:06;;;;;;;22.58;12.13;;;8.90;99.90;;;;;;4964074;28;20045;-66
2021/12/17 10:31:36;;;;;;;20.27;11.15;;;8.90;99.90;;;;;;4955845;28;20129;-66
2021/12/17 10:34:06;;;;;;;24.23;12.30;;;9.00;99.90;;;;;;4958073;28;20054;-67
2021/12/17 10:36:41;;;;;;;20.40;12.52;;;9.00;99.90;;;;;;4954334;28;20134;-67
2021/12/17 10:39:31;;;;;;;23.08;12.82;;;9.00;99.90;;;;;;4963162;28;20043;-66
2021/12/17 10:41:58;;;;;;;21.25;11.98;;;9.00;99.90;;;;;;4944484;28;20057;-66
2021/12/17 10:44:24;;;;;;;23.17;16.35;;;9.00;99.90;;;;;;4960941;28;20125;-66
2021/12/17 10:47:31;;;;;;;23.58;12.93;;;9.00;99.90;;;;;;4958508;28;20452;-66
2021/12/17 10:49:54;;;;;;;19.45;11.75;;;9.00;99.90;;;;;;4965735;28;20126;-66
2021/12/17 10:52:28;;;;;;;18.52;10.88;;;9.10;99.90;;;;;;4961000;28;20123;-66
2021/12/17 10:55:14;;;;;;;21.65;12.68;;;9.10;99.90;;;;;;4968330;28;20458;-66
2021/12/17 10:57:40;;;;;;;19.52;12.18;;;9.00;99.90;;;;;;4949890;28;20047;-67
2021/12/17 11:00:07;;;;;;;21.75;12.20;;;9.10;99.90;;;;;;4951476;28;20467;-66
2021/12/17 11:02:33;;;;;;;21.80;11.95;;;9.20;99.90;;;;;;4961911;28;20035;-66
2021/12/17 11:05:10;;;;;;;19.30;11.73;;;9.20;99.90;;;;;;4968824;28;20043;-66
2021/12/17 11:07:43;;;;;;;17.63;10.38;;;9.20;99.90;;;;;;4959752;28;20049;-66
2021/12/17 11:10:09;;;;;;;21.80;12.13;;;9.30;99.90;;;;;;4965105;28;20235;-66
2021/12/17 11:12:40;;;;;;;18.33;12.15;;;9.30;99.90;;;;;;4963361;28;20055;-66
2021/12/17 11:15:12;;;;;;;16.65;10.68;;;9.40;99.90;;;;;;4968158;28;20039;-66
2021/12/17 11:17:39;;;;;;;18.63;11.70;;;9.40;99.90;;;;;;4960441;28;20101;-66
2021/12/17 11:20:31;;;;;;;17.17;12.02;;;9.40;99.90;;;;;;4971506;28;20418;-66
2021/12/17 11:23:03;;;;;;;21.45;11.73;;;9.40;99.90;;;;;;4960343;28;20058;-66
2021/12/17 11:25:30;;;;;;;17.23;11.18;;;9.50;99.90;;;;;;4971977;28;20050;-66
2021/12/17 11:27:57;;;;;;;21.42;11.52;;;9.40;99.90;;;;;;4959851;28;20499;-66
2021/12/17 11:30:29;;;;;;;20.88;10.77;;;9.50;99.90;;;;;;4966483;28;20078;-66
2021/12/17 11:32:55;;;;;;;17.05;10.25;;;9.50;99.90;;;;;;4963670;28;20468;-66
2021/12/17 11:35:24;;;;;;;16.17;10.43;;;9.50;99.90;;;;;;4964588;28;20046;-66
2021/12/17 11:37:53;;;;;;;16.80;10.35;;;9.50;99.90;;;;;;4961749;28;20039;-66
2021/12/17 11:40:29;;;;;;;15.55;10.23;;;9.50;99.90;;;;;;4961243;28;20082;-66
2021/12/17 11:43:35;;;;;;;16.90;10.18;;;9.50;99.90;;;;;;4958428;28;20047;-66
2021/12/17 11:46:25;;;;;;;17.42;10.52;;;9.50;99.90;;;;;;4965196;28;20039;-66
2021/12/17 11:49:04;;;;;;;15.20;9.60;;;9.60;99.90;;;;;;4947362;28;20073;-66
2021/12/17 11:51:32;;;;;;;16.27;9.73;;;9.60;99.90;;;;;;4966549;28;20079;-66
2021/12/17 11:54:06;;;;;;;14.43;8.85;;;9.50;99.90;;;;;;4962484;28;20483;-66
2021/12/17 11:56:54;;;;;;;15.32;9.40;;;9.60;99.90;;;;;;4947479;28;20046;-66
2021/12/17 11:59:27;;;;;;;17.20;9.35;;;9.60;99.90;;;;;;4960804;28;20522;-65
2021/12/17 12:02:01;;;;;;;19.20;9.65;;;9.60;99.90;;;;;;4952507;28;21122;-66
2021/12/17 12:04:33;;;;;;;;;;;9.60;99.90;;;;;;4958175;28;20046;-67
2021/12/17 12:07:07;;;;;;;19.85;8.90;;;9.60;99.90;;;;;;4962839;28;19918;-67
2021/12/17 12:10:08;;;;;;;15.63;8.73;;;9.50;99.90;;;;;;4960233;28;20098;-67
2021/12/17 12:12:36;;;;;;;12.98;9.30;;;9.50;99.90;;;;;;4970866;28;20058;-67
2021/12/17 12:15:20;;;;;;;14.82;9.60;;;9.50;99.90;;;;;;4959746;28;20141;-67
2021/12/17 12:17:58;;;;;;;18.17;9.63;;;9.50;99.90;;;;;;4964511;28;20054;-66
2021/12/17 12:20:50;;;;;;;14.30;9.43;;;9.50;99.90;;;;;;4955370;28;20393;-66
2021/12/17 12:23:46;;;;;;;15.80;9.45;;;9.50;99.90;;;;;;4964682;28;20058;-66
2021/12/17 12:26:21;;;;;;;15.85;10.32;;;9.50;99.90;;;;;;4949001;28;20535;-66
2021/12/17 12:28:50;;;;;;;;;;;9.60;99.90;;;;;;4962483;28;20097;-66
2021/12/17 12:31:28;;;;;;;17.40;10.10;;;9.50;99.90;;;;;;4966272;28;19929;-66
2021/12/17 12:34:03;;;;;;;16.92;9.85;;;9.50;99.90;;;;;;4967860;28;20110;-66
2021/12/17 12:36:44;;;;;;;20.48;11.10;;;9.50;99.90;;;;;;4948330;28;20047;-66
2021/12/17 12:39:35;;;;;;;18.88;11.50;;;9.60;99.90;;;;;;4967829;28;20045;-66
2021/12/17 12:42:11;;;;;;;19.48;10.45;;;9.60;99.90;;;;;;4948011;28;20066;-66
2021/12/17 12:44:43;;;;;;;19.95;13.57;;;9.60;99.90;;;;;;4958818;28;20049;-66
2021/12/17 12:47:31;;;;;;;17.60;11.25;;;9.50;99.90;;;;;;4947061;28;20039;-66
2021/12/17 12:50:03;;;;;;;17.23;10.35;;;9.60;99.90;;;;;;4958907;28;20318;-66
2021/12/17 12:52:32;;;;;;;19.45;10.48;;;9.60;99.90;;;;;;4943251;28;20079;-66
2021/12/17 12:55:28;;;;;;;20.40;11.15;;;9.60;99.90;;;;;;4956330;28;20194;-66
2021/12/17 12:58:07;;;;;;;17.30;10.35;;;9.70;99.90;;;;;;4962653;28;20133;-66
2021/12/17 13:00:38;;;;;;;18.75;10.00;;;9.60;99.90;;;;;;4954817;28;20510;-66
2021/12/17 13:03:06;;;;;;;14.85;9.80;;;9.70;99.90;;;;;;4949933;28;20054;-66
2021/12/17 13:05:33;;;;;;;16.25;10.00;;;9.60;99.90;;;;;;4956200;28;20442;-66
2021/12/17 13:08:02;;;;;;;21.55;11.30;;;9.60;99.90;;;;;;4958172;28;20165;-66
2021/12/17 13:10:37;;;;;;;25.23;11.48;;;9.60;99.90;;;;;;4965306;28;20041;-66
2021/12/17 13:13:20;;;;;;;16.35;9.13;;;9.60;99.90;;;;;;4966179;28;20050;-66
2021/12/17 13:16:02;;;;;;;22.65;11.43;;;9.60;99.90;;;;;;4957559;28;20368;-66
2021/12/17 13:21:33;;;;;;;16.60;10.25;;;9.60;99.90;;;;;;4937713;28;20055;-66
2021/12/17 13:24:16;;;;;;;15.45;9.70;;;9.60;99.90;;;;;;4940837;29;20063;-66
2021/12/17 13:26:49;;;;;;;12.43;8.30;;;9.60;99.90;;;;;;4955403;28;20050;-66
2021/12/17 13:29:16;;;;;;;12.02;7.90;;;9.60;99.90;;;;;;4963762;28;20141;-66
2021/12/17 13:31:45;;;;;;;12.55;8.18;;;9.60;99.90;;;;;;4955393;28;20046;-66
2021/12/17 13:34:26;;;;;;;12.85;8.07;;;9.50;99.90;;;;;;4964015;28;20118;-66
2021/12/17 13:36:58;;;;;;;10.23;6.70;;;9.60;99.90;;;;;;4956430;28;20043;-66
2021/12/17 13:39:27;;;;;;;8.52;5.97;;;9.60;99.90;;;;;;4963684;28;20093;-66
2021/12/17 13:41:54;;;;;;;10.60;6.68;;;9.50;99.90;;;;;;4951130;28;20035;-66
2021/12/17 13:44:35;;;;;;;10.80;6.45;;;9.50;99.90;;;;;;4952847;28;20511;-66
2021/12/17 13:47:14;;;;;;;8.48;5.50;;;9.50;99.90;;;;;;4941113;28;20496;-65
2021/12/17 13:49:42;;;;;;;6.40;4.68;;;9.50;99.90;;;;;;4961387;28;20039;-65
2021/12/17 13:52:09;;;;;;;7.05;4.72;;;9.50;99.90;;;;;;4959559;28;20117;-65
2021/12/17 13:54:35;;;;;;;8.30;5.72;;;9.60;99.90;;;;;;4947996;28;20065;-65
2021/12/17 13:57:03;;;;;;;11.55;8.68;;;9.50;99.90;;;;;;4958311;28;20066;-66
2021/12/17 13:59:31;;;;;;;6.57;4.90;;;9.50;99.90;;;;;;4955673;28;20086;-66
2021/12/17 14:01:57;;;;;;;6.30;4.32;;;9.50;99.90;;;;;;4944362;28;20511;-66
2021/12/17 14:04:23;;;;;;;6.93;4.15;;;9.50;99.90;;;;;;4960024;28;20039;-67
2021/12/17 14:06:52;;;;;;;5.15;3.85;;;9.50;99.90;;;;;;4960161;28;20200;-66
2021/12/17 14:09:23;;;;;;;4.25;3.10;;;9.50;99.90;;;;;;4956629;28;20035;-66
2021/12/17 14:11:49;;;;;;;5.28;3.60;;;9.50;99.90;;;;;;4966979;28;20541;-66
2021/12/17 14:14:26;;;;;;;4.13;2.60;;;9.50;99.90;;;;;;4960701;28;20391;-66
2021/12/17 14:17:04;;;;;;;4.35;2.85;;;9.40;99.90;;;;;;4961201;28;20062;-66
2021/12/17 14:19:42;;;;;;;5.40;2.38;;;9.40;99.90;;;;;;4960032;28;20043;-66
2021/12/17 14:22:33;;;;;;;2.80;2.17;;;9.40;99.90;;;;;;4965793;28;20503;-66
2021/12/17 14:24:59;;;;;;;3.17;2.10;;;9.40;99.90;;;;;;4949337;28;20427;-66
2021/12/17 14:27:45;;;;;;;4.10;2.55;;;9.30;99.90;;;;;;4958347;28;20041;-66
2021/12/17 14:30:11;;;;;;;3.83;2.80;;;9.30;99.90;;;;;;4960685;28;20079;-66
2021/12/17 14:32:43;;;;;;;3.13;2.60;;;9.30;99.90;;;;;;4958416;28;20043;-66
2021/12/17 14:35:09;;;;;;;4.63;3.22;;;9.30;99.90;;;;;;4965312;28;20039;-66
2021/12/17 14:37:54;;;;;;;4.03;2.97;;;9.20;99.90;;;;;;4967811;28;20058;-66
2021/12/17 14:40:32;;;;;;;4.43;3.63;;;9.30;99.90;;;;;;4942401;28;20058;-66
2021/12/17 14:42:59;;;;;;;4.72;3.90;;;9.30;99.90;;;;;;4953590;28;20050;-66
2021/12/17 14:45:33;;;;;;;5.85;3.22;;;9.20;99.90;;;;;;4957590;28;20496;-66
2021/12/17 14:48:22;;;;;;;4.22;3.33;;;9.30;99.90;;;;;;4976605;28;20050;-66
2021/12/17 15:04:39;;;;;;;6.00;4.72;;;9.20;99.90;;;;;;4963447;28;20043;-67
2021/12/17 15:07:05;;;;;;;6.55;5.45;;;9.20;99.90;;;;;;4953408;28;20086;-67
2021/12/17 15:09:33;;;;;;;6.32;5.25;;;9.20;99.90;;;;;;4959093;28;20043;-67
2021/12/17 15:12:01;;;;;;;7.72;5.70;;;9.20;99.90;;;;;;4959458;28;20039;-67
2021/12/17 15:14:26;;;;;;;7.50;5.78;;;9.20;99.90;;;;;;4963553;28;20038;-67
2021/12/17 15:16:53;;;;;;;6.28;5.13;;;9.20;99.90;;;;;;4953773;28;20043;-67
2021/12/17 15:19:19;;;;;;;7.20;5.65;;;9.10;99.90;;;;;;4958414;28;20243;-67
2021/12/17 15:21:45;;;;;;;5.88;5.22;;;9.10;99.90;;;;;;4963181;28;20430;-67
2021/12/17 15:24:11;;;;;;;9.20;6.25;;;9.20;99.90;;;;;;4957637;28;20059;-67
2021/12/17 15:26:38;;;;;;;86.53;54.10;;;9.20;99.90;;;;;;4965340;28;20162;-67
2021/12/17 15:29:03;;;;;;;94.60;68.28;;;9.20;99.90;;;;;;4959216;28;20035;-66
2021/12/17 15:31:29;;;;;;;10.55;7.85;;;9.10;99.90;;;;;;4962132;28;20042;-66
2021/12/17 15:33:55;;;;;;;8.48;6.82;;;9.10;99.90;;;;;;4954954;28;20051;-67
2021/12/17 15:36:20;;;;;;;7.10;5.85;;;9.20;99.90;;;;;;4943346;28;20058;-67
2021/12/17 15:38:46;;;;;;;6.57;5.97;;;9.10;99.90;;;;;;4961782;28;20126;-67
2021/12/17 15:41:11;;;;;;;8.00;6.32;;;9.10;99.90;;;;;;4955121;28;20038;-67
2021/12/17 15:43:37;;;;;;;7.88;7.07;;;9.10;99.90;;;;;;4961782;28;20101;-67
2021/12/17 15:46:03;;;;;;;7.85;7.15;;;9.00;99.90;;;;;;4954149;28;20058;-67
2021/12/17 15:48:28;;;;;;;10.20;7.32;;;9.10;99.90;;;;;;4958921;28;20480;-67
2021/12/17 15:50:54;;;;;;;7.93;6.68;;;9.10;99.90;;;;;;4968437;28;20046;-67
2021/12/17 15:53:20;;;;;;;9.23;7.18;;;9.10;99.90;;;;;;4960134;28;20696;-67